Time;durP1;ratioP1;P1;durP2;ratioP2;P2;SDS_P1;SDS_P2;PMS_P1;PMS_P2;Temp;Humidity;BMP_temperature;BMP_pressure;BME280_temperature;BME280_humidity;BME280_pressure;Samples;Min_cycle;Max_cycle;Signal;HPM_P1;HPM_P2
2022/04/18 00:00:24;;;;;;;7.70;6.30;;;;;;;10.18;100.00;100531.67;1679722;84;21088;-60
2022/04/18 00:02:53;;;;;;;9.35;7.30;;;;;;;10.14;100.00;100530.59;1679955;85;21537;-60
2022/04/18 00:05:20;;;;;;;9.13;6.85;;;;;;;10.08;100.00;100530.39;1680234;85;21518;-60
2022/04/18 00:07:49;;;;;;;8.60;6.90;;;;;;;9.86;100.00;100523.18;1679996;85;21526;-60
2022/04/18 00:10:17;;;;;;;10.68;7.37;;;;;;;9.81;100.00;100524.20;1680107;85;21049;-61
2022/04/18 00:12:45;;;;;;;7.95;6.67;;;;;;;9.96;100.00;100521.91;1679830;85;21061;-60
2022/04/18 00:15:14;;;;;;;9.38;7.10;;;;;;;9.94;100.00;100515.53;1680032;85;21518;-61
2022/04/18 00:17:43;;;;;;;8.90;6.85;;;;;;;9.92;100.00;100510.90;1680079;85;21068;-60
2022/04/18 00:20:12;;;;;;;8.85;6.95;;;;;;;9.99;100.00;100520.47;1679709;85;21053;-61
2022/04/18 00:22:40;;;;;;;8.70;6.80;;;;;;;10.04;100.00;100514.70;1679841;85;21049;-61
2022/04/18 00:25:09;;;;;;;10.05;7.33;;;;;;;9.99;100.00;100505.88;1679837;85;21077;-60
2022/04/18 00:27:38;;;;;;;10.88;7.80;;;;;;;9.95;100.00;100508.64;1679825;85;21018;-60
2022/04/18 00:30:09;;;;;;;11.45;8.33;;;;;;;9.91;100.00;100506.64;1679785;85;21092;-60
2022/04/18 00:32:38;;;;;;;10.72;8.00;;;;;;;9.80;100.00;100493.41;1679730;85;21049;-60
2022/04/18 00:35:08;;;;;;;10.65;8.35;;;;;;;9.88;100.00;100487.50;1679943;85;21092;-60
2022/04/18 00:37:39;;;;;;;10.78;8.38;;;;;;;9.92;100.00;100480.05;1680143;85;21044;-60
2022/04/18 00:40:06;;;;;;;11.15;8.45;;;;;;;9.77;100.00;100484.09;1679935;85;21098;-61
2022/04/18 00:42:35;;;;;;;10.50;8.40;;;;;;;9.79;100.00;100475.88;1679936;85;21069;-61
2022/04/18 00:45:03;;;;;;;11.43;8.20;;;;;;;9.82;100.00;100474.90;1679842;85;21065;-61
2022/04/18 00:47:32;;;;;;;10.43;8.05;;;;;;;9.99;100.00;100465.19;1679694;85;21045;-60
2022/04/18 00:49:59;;;;;;;10.93;8.63;;;;;;;10.00;100.00;100463.02;1679709;85;21045;-60
2022/04/18 00:52:29;;;;;;;10.55;7.83;;;;;;;10.01;100.00;100457.78;1679699;85;21077;-59
2022/04/18 00:55:02;;;;;;;10.98;8.20;;;;;;;9.98;100.00;100456.64;1680196;85;21053;-59
2022/04/18 00:57:32;;;;;;;10.75;8.10;;;;;;;9.74;100.00;100448.67;1679957;85;21097;-60
2022/04/18 00:59:59;;;;;;;11.10;8.53;;;;;;;9.58;100.00;100451.03;1679900;84;21573;-60
2022/04/18 01:02:27;;;;;;;11.95;8.95;;;;;;;9.76;100.00;100437.42;1679906;85;21053;-60
2022/04/18 01:04:55;;;;;;;11.05;8.70;;;;;;;9.86;100.00;100443.02;1680154;85;21112;-60
2022/04/18 01:07:23;;;;;;;11.75;8.68;;;;;;;9.69;100.00;100433.87;1680086;85;21493;-60
2022/04/18 01:09:51;;;;;;;13.40;9.25;;;;;;;9.70;100.00;100426.11;1679820;85;21073;-60
2022/04/18 01:12:19;;;;;;;12.25;8.48;;;;;;;9.66;100.00;100425.02;1679981;85;21112;-59
2022/04/18 01:15:04;;;;;;;12.88;9.43;;;;;;;9.74;100.00;100420.41;1679106;85;21050;-60
2022/04/18 01:17:51;;;;;;;13.20;9.95;;;;;;;9.76;100.00;100415.57;1680125;85;21550;-60
2022/04/18 01:20:36;;;;;;;;;;;;;;;9.79;100.00;100412.89;1678858;85;21030;-61
2022/04/18 01:23:15;;;;;;;12.68;9.40;;;;;;;9.70;100.00;100408.12;1632769;87;20106;-59
2022/04/18 01:28:58;;;;;;;12.65;8.95;;;;;;;9.55;100.00;100403.61;1630189;88;21079;-60
2022/04/18 01:31:32;;;;;;;11.80;8.70;;;;;;;9.46;100.00;100402.26;1625979;88;21036;-60
2022/04/18 01:34:00;;;;;;;12.03;8.55;;;;;;;9.48;100.00;100401.75;1626291;87;21592;-60
2022/04/18 01:36:28;;;;;;;12.73;9.05;;;;;;;9.53;100.00;100389.56;1626053;87;21056;-60
2022/04/18 01:38:56;;;;;;;11.43;8.65;;;;;;;9.67;100.00;100397.13;1626471;87;21080;-60
2022/04/18 01:41:25;;;;;;;11.25;8.38;;;;;;;9.45;100.00;100377.91;1603196;88;21108;-60
2022/04/18 01:43:54;;;;;;;11.20;8.20;;;;;;;9.66;100.00;100380.05;1625971;88;21068;-60
2022/04/18 01:46:22;;;;;;;11.10;8.75;;;;;;;9.29;100.00;100381.12;1629647;87;21031;-59
2022/04/18 01:48:54;;;;;;;14.07;9.23;;;;;;;9.46;100.00;100369.31;1636289;87;21579;-60
2022/04/18 01:51:20;;;;;;;11.20;8.20;;;;;;;9.30;100.00;100367.37;1657329;87;21560;-60
2022/04/18 01:53:48;;;;;;;12.05;9.15;;;;;;;9.33;100.00;100353.13;1657554;87;21032;-60
2022/04/18 01:56:16;;;;;;;12.33;8.73;;;;;;;9.32;100.00;100345.02;1657459;87;21094;-60
2022/04/18 01:58:44;;;;;;;12.95;9.13;;;;;;;9.41;100.00;100343.37;1657795;86;21088;-60
2022/04/18 02:01:11;;;;;;;12.43;9.03;;;;;;;9.17;100.00;100340.08;1657406;85;21087;-60
2022/04/18 02:03:42;;;;;;;12.20;8.95;;;;;;;9.37;100.00;100337.97;1657696;86;21104;-60
2022/04/18 02:06:11;;;;;;;12.03;8.73;;;;;;;9.23;100.00;100336.42;1657768;86;21568;-60
2022/04/18 02:08:40;;;;;;;12.93;9.30;;;;;;;9.38;100.00;100334.95;1657471;86;21065;-60
2022/04/18 02:11:10;;;;;;;12.13;8.58;;;;;;;9.31;100.00;100327.95;1657691;86;21063;-60
2022/04/18 02:13:40;;;;;;;12.70;9.08;;;;;;;9.47;100.00;100332.00;1657477;86;21095;-61
2022/04/18 02:16:09;;;;;;;13.13;9.13;;;;;;;9.48;100.00;100327.23;1657808;86;21028;-60
2022/04/18 02:18:38;;;;;;;13.03;9.20;;;;;;;9.35;100.00;100324.36;1657778;86;21063;-60
2022/04/18 02:21:07;;;;;;;13.05;9.30;;;;;;;9.43;100.00;100324.04;1657556;87;21123;-60
2022/04/18 02:23:35;;;;;;;10.98;8.05;;;;;;;9.38;100.00;100326.78;1657844;86;21056;-60
2022/04/18 02:26:03;;;;;;;11.95;8.53;;;;;;;9.35;100.00;100324.36;1657468;86;21060;-60
2022/04/18 02:28:32;;;;;;;11.00;8.30;;;;;;;9.44;100.00;100329.55;1657993;86;21083;-60
2022/04/18 02:30:59;;;;;;;10.60;8.10;;;;;;;9.35;100.00;100333.80;1657455;86;21035;-60
2022/04/18 02:33:26;;;;;;;11.57;8.25;;;;;;;9.43;100.00;100324.04;1657609;86;21063;-60
2022/04/18 02:35:55;;;;;;;10.85;8.25;;;;;;;9.50;100.00;100329.75;1657790;86;21626;-60
2022/04/18 02:38:24;;;;;;;11.20;8.28;;;;;;;9.50;100.00;100327.17;1657546;87;21071;-60
2022/04/18 02:40:51;;;;;;;15.18;8.83;;;;;;;9.46;100.00;100329.49;1657766;86;21094;-60
2022/04/18 02:43:18;;;;;;;11.38;8.33;;;;;;;9.54;100.00;100324.86;1657524;87;21098;-60
2022/04/18 02:45:54;;;;;;;11.97;8.20;;;;;;;9.56;100.00;100324.34;1657593;86;21111;-60
2022/04/18 02:48:26;;;;;;;10.08;7.97;;;;;;;9.51;100.00;100323.27;1654688;86;21500;-60
2022/04/18 02:50:56;;;;;;;9.73;7.65;;;;;;;9.40;100.00;100314.70;1656150;87;21091;-60
2022/04/18 02:53:25;;;;;;;10.60;6.95;;;;;;;9.47;100.00;100309.30;1656195;86;21070;-60
2022/04/18 02:55:53;;;;;;;9.13;6.78;;;;;;;9.27;100.00;100314.86;1655813;87;21560;-60
2022/04/18 02:58:21;;;;;;;7.55;6.35;;;;;;;9.29;100.00;100311.77;1656297;87;21024;-60
2022/04/18 03:00:49;;;;;;;7.15;5.62;;;;;;;9.28;100.00;100306.69;1655949;85;21102;-60
2022/04/18 03:03:16;;;;;;;6.97;5.30;;;;;;;9.35;100.00;100308.95;1656085;87;21111;-60
2022/04/18 03:05:44;;;;;;;8.40;5.53;;;;;;;9.28;100.00;100304.95;1656310;87;21063;-60
2022/04/18 03:08:13;;;;;;;6.05;5.03;;;;;;;9.28;100.00;100306.69;1656078;87;21060;-60
2022/04/18 03:13:30;;;;;;;7.20;4.95;;;;;;;9.07;100.00;100309.25;1656095;87;21056;-60
2022/04/18 03:15:58;;;;;;;7.70;5.15;;;;;;;9.11;100.00;100312.53;1656248;87;21023;-60
2022/04/18 03:18:26;;;;;;;5.80;4.90;;;;;;;9.13;100.00;100303.86;1656017;87;21091;-60
2022/04/18 03:20:57;;;;;;;6.50;5.10;;;;;;;9.06;100.00;100302.89;1656072;86;21631;-60
2022/04/18 03:23:23;;;;;;;6.55;4.95;;;;;;;8.78;100.00;100308.70;1656248;87;21087;-60
2022/04/18 03:25:55;;;;;;;5.83;4.80;;;;;;;8.72;100.00;100306.80;1608961;86;21074;-59
2022/04/18 03:28:26;;;;;;;5.87;4.75;;;;;;;8.63;100.00;100299.86;1656256;86;21500;-60
2022/04/18 03:30:55;;;;;;;6.42;4.70;;;;;;;8.57;100.00;100288.55;1617681;89;21100;-59
2022/04/18 03:33:24;;;;;;;5.40;3.92;;;;;;;8.58;100.00;100295.83;1617879;88;21022;-59
2022/04/18 03:41:23;;;;;;;5.28;3.80;;;;;;;8.44;100.00;100300.66;1617984;89;21077;-59
2022/04/18 03:43:51;;;;;;;4.83;3.77;;;;;;;8.33;100.00;100295.47;1617738;89;21091;-60
2022/04/18 03:46:19;;;;;;;4.08;3.30;;;;;;;8.25;100.00;100297.91;1621665;86;21709;-60
2022/04/18 03:48:46;;;;;;;4.12;3.33;;;;;;;8.17;100.00;100307.17;1660120;86;21136;-60
2022/04/18 03:51:13;;;;;;;4.08;3.52;;;;;;;8.36;100.00;100296.62;1660024;86;21089;-60
2022/04/18 03:53:42;;;;;;;4.00;3.27;;;;;;;8.35;100.00;100300.52;1660236;86;21060;-60
2022/04/18 03:56:09;;;;;;;5.58;3.80;;;;;;;8.32;100.00;100301.93;1660223;86;21561;-60
2022/04/18 03:58:39;;;;;;;5.22;4.30;;;;;;;8.36;100.00;100301.75;1656730;86;21072;-60
2022/04/18 04:01:07;;;;;;;6.03;4.10;;;;;;;8.44;100.00;100302.77;1660089;86;21135;-60
2022/04/18 04:03:35;;;;;;;6.35;4.12;;;;;;;8.46;100.00;100296.30;1636222;86;21108;-60
2022/04/18 04:06:03;;;;;;;6.00;4.10;;;;;;;8.30;100.00;100306.28;1660108;86;21125;-60
2022/04/18 04:08:32;;;;;;;5.62;4.58;;;;;;;8.44;100.00;100302.77;1660163;86;21100;-60
2022/04/18 04:11:00;;;;;;;6.45;4.62;;;;;;;8.53;100.00;100297.27;1660136;86;21521;-60
2022/04/18 04:13:30;;;;;;;5.58;4.50;;;;;;;8.37;100.00;100294.87;1660001;86;21061;-60
2022/04/18 04:16:09;;;;;;;5.15;4.17;;;;;;;8.41;100.00;100296.04;1644119;86;21053;-60
2022/04/18 04:18:37;;;;;;;6.78;4.37;;;;;;;8.63;100.00;100286.20;1659954;86;21057;-61
2022/04/18 04:21:07;;;;;;;5.78;4.75;;;;;;;8.54;100.00;100293.83;1660374;86;21125;-61
2022/04/18 04:23:34;;;;;;;6.33;4.75;;;;;;;8.46;100.00;100279.18;1660228;86;21577;-61
2022/04/18 04:26:03;;;;;;;5.33;4.20;;;;;;;8.54;100.00;100278.43;1663789;85;21060;-61
2022/04/18 04:28:34;;;;;;;5.62;3.70;;;;;;;8.45;100.00;100270.25;1660861;85;21091;-61
2022/04/18 04:31:04;;;;;;;5.30;4.03;;;;;;;8.39;100.00;100256.76;1672955;85;21065;-61
2022/04/18 04:33:32;;;;;;;4.65;3.90;;;;;;;8.53;100.00;100266.48;1671935;85;21008;-62
2022/04/18 04:36:02;;;;;;;4.45;3.75;;;;;;;8.58;100.00;100257.34;1673040;85;21023;-62
2022/04/18 04:38:29;;;;;;;5.42;4.08;;;;;;;8.54;100.00;100246.81;1670409;85;20993;-62
2022/04/18 04:40:58;;;;;;;4.42;3.37;;;;;;;8.45;100.00;100246.71;1670219;85;21088;-62
2022/04/18 04:43:30;;;;;;;4.58;3.55;;;;;;;8.33;100.00;100262.55;1668792;85;21024;-62
2022/04/18 04:46:01;;;;;;;5.20;3.50;;;;;;;8.42;100.00;100249.41;1672875;85;20965;-62
2022/04/18 04:48:31;;;;;;;3.87;3.35;;;;;;;8.55;100.00;100241.60;1670937;85;21088;-61
2022/04/18 04:51:00;;;;;;;3.77;3.30;;;;;;;8.55;100.00;100251.86;1712456;83;21446;-62
2022/04/18 04:53:29;;;;;;;3.33;2.90;;;;;;;8.49;100.00;100253.39;1710972;84;21017;-61
2022/04/18 04:55:58;;;;;;;3.62;3.12;;;;;;;8.50;100.00;100258.09;1712906;82;21540;-62
2022/04/18 04:58:27;;;;;;;4.67;3.08;;;;;;;8.34;100.00;100263.78;1716394;84;21059;-62
2022/04/18 05:00:57;;;;;;;4.15;2.95;;;;;;;8.65;100.00;100253.63;1712840;83;21612;-62
2022/04/18 05:03:30;;;;;;;3.90;3.10;;;;;;;8.67;100.00;100265.11;1710687;84;21020;-62
2022/04/18 05:05:58;;;;;;;4.67;3.55;;;;;;;8.46;100.00;100259.94;1709101;84;21007;-62
2022/04/18 05:08:27;;;;;;;4.22;3.47;;;;;;;8.33;100.00;100252.29;1712539;84;21037;-62
2022/04/18 05:10:59;;;;;;;5.12;3.37;;;;;;;8.21;100.00;100244.20;1710100;84;21056;-62
2022/04/18 05:13:27;;;;;;;5.62;3.85;;;;;;;8.37;100.00;100232.04;1710463;84;21529;-63
2022/04/18 05:15:54;;;;;;;4.37;3.55;;;;;;;8.41;100.00;100231.91;1713274;84;21017;-63
2022/04/18 05:18:27;;;;;;;5.65;4.08;;;;;;;8.29;100.00;100228.94;1714048;84;21537;-62
2022/04/18 05:20:55;;;;;;;5.67;3.90;;;;;;;8.39;100.00;100222.55;1716048;84;21024;-62
2022/04/18 05:23:23;;;;;;;6.12;4.35;;;;;;;8.43;100.00;100211.31;1709743;84;21482;-62
2022/04/18 05:25:53;;;;;;;8.45;5.47;;;;;;;8.36;100.00;100209.87;1711158;84;21029;-63
2022/04/18 05:28:21;;;;;;;6.28;4.47;;;;;;;8.37;100.00;100204.69;1712132;84;21021;-64
2022/04/18 05:30:50;;;;;;;5.62;4.00;;;;;;;8.54;100.00;100203.20;1708249;84;21494;-63
2022/04/18 05:33:18;;;;;;;5.50;4.50;;;;;;;8.55;100.00;100199.27;1716086;84;21021;-63
2022/04/18 05:35:47;;;;;;;7.37;5.30;;;;;;;8.43;100.00;100198.48;1707130;84;21001;-64
2022/04/18 05:38:17;;;;;;;6.15;4.60;;;;;;;8.52;100.00;100199.87;1713187;84;21026;-63
2022/04/18 05:40:47;;;;;;;5.65;4.83;;;;;;;8.20;100.00;100195.08;1712445;84;20981;-64
2022/04/18 05:43:18;;;;;;;5.72;4.50;;;;;;;8.30;100.00;100197.30;1693386;85;21579;-64
2022/04/18 05:45:50;;;;;;;6.87;5.25;;;;;;;8.50;100.00;100190.11;1666626;85;21045;-63
2022/04/18 05:48:16;;;;;;;9.30;5.37;;;;;;;8.52;100.00;100196.84;1683578;85;21611;-63
2022/04/18 05:50:47;;;;;;;8.15;5.70;;;;;;;8.61;100.00;100196.91;1679731;85;21121;-64
2022/04/18 05:53:27;;;;;;;6.20;4.80;;;;;;;8.66;100.00;100189.87;1700387;83;21556;-64
2022/04/18 05:56:13;;;;;;;5.78;4.67;;;;;;;8.65;100.00;100188.64;1699238;83;21056;-64
2022/04/18 05:58:42;;;;;;;6.33;4.50;;;;;;;8.68;100.00;100189.78;1662258;85;20991;-63
2022/04/18 06:01:11;;;;;;;6.65;4.87;;;;;;;8.90;100.00;100184.17;1661395;84;21527;-63
2022/04/18 06:03:40;;;;;;;7.00;4.35;;;;;;;9.05;100.00;100192.11;1663623;85;21500;-63
2022/04/18 06:06:08;;;;;;;6.72;4.40;;;;;;;8.84;100.00;100188.28;1630795;87;21583;-63
2022/04/18 06:08:36;;;;;;;6.25;4.85;;;;;;;8.72;100.00;100183.63;1625451;87;21537;-63
2022/04/18 06:11:06;;;;;;;5.83;4.20;;;;;;;8.54;100.00;100174.53;1642950;86;21023;-63
2022/04/18 06:13:35;;;;;;;6.83;4.75;;;;;;;8.59;100.00;100167.45;1666721;85;21031;-63
2022/04/18 06:16:05;;;;;;;6.15;5.05;;;;;;;8.95;100.00;100167.28;1649886;85;21059;-62
2022/04/18 06:18:33;;;;;;;6.72;4.72;;;;;;;9.11;100.00;100163.60;1659821;85;21510;-61
2022/04/18 06:21:03;;;;;;;7.20;4.87;;;;;;;8.96;100.00;100167.22;1633472;87;21060;-62
2022/04/18 06:23:32;;;;;;;7.00;4.97;;;;;;;8.96;100.00;100159.94;1664243;86;21667;-63
2022/04/18 06:26:09;;;;;;;6.55;5.00;;;;;;;9.17;100.00;100160.77;1628305;86;21082;-62
2022/04/18 06:28:37;;;;;;;7.17;4.90;;;;;;;9.26;100.00;100163.38;1664109;86;21055;-61
2022/04/18 06:31:06;;;;;;;6.20;4.58;;;;;;;9.49;100.00;100160.62;1664336;86;21055;-61
2022/04/18 06:33:39;;;;;;;;;;;;;;;9.38;100.00;100169.25;1666256;86;21063;-61
2022/04/18 06:36:06;;;;;;;6.50;4.35;;;;;;;9.48;100.00;100170.50;1664852;86;20117;-61
2022/04/18 06:38:35;;;;;;;7.65;4.92;;;;;;;9.65;100.00;100163.77;1664576;86;21102;-61
2022/04/18 06:41:05;;;;;;;6.87;4.53;;;;;;;9.51;100.00;100154.97;1664625;86;21079;-61
2022/04/18 06:43:34;;;;;;;8.93;5.17;;;;;;;9.34;100.00;100158.27;1664178;86;21588;-61
2022/04/18 06:46:03;;;;;;;7.47;4.97;;;;;;;9.35;100.00;100161.23;1663644;86;21083;-62
2022/04/18 06:48:33;;;;;;;8.43;4.95;;;;;;;9.64;100.00;100156.52;1660118;86;21107;-62
2022/04/18 06:51:19;;;;;;;6.97;4.92;;;;;;;9.57;100.00;100155.11;1659040;86;21583;-61
2022/04/18 06:54:01;;;;;;;7.22;5.20;;;;;;;9.42;100.00;100157.93;1655081;86;21026;-62
2022/04/18 06:59:22;;;;;;;5.72;4.50;;;;;;;9.71;100.00;100149.34;1631526;86;21049;-62
2022/04/18 07:01:51;;;;;;;6.87;5.42;;;;;;;9.56;100.00;100152.17;1631837;86;21038;-62
2022/04/18 07:04:19;;;;;;;7.47;5.25;;;;;;;9.55;100.00;100157.77;1631951;88;21124;-62
2022/04/18 07:06:48;;;;;;;6.78;5.20;;;;;;;9.68;100.00;100170.89;1631749;88;22409;-62
2022/04/18 07:09:15;;;;;;;6.60;5.20;;;;;;;9.63;100.00;100161.28;1631808;88;21171;-61
2022/04/18 07:11:46;;;;;;;5.65;4.87;;;;;;;9.69;100.00;100153.30;1633659;88;21552;-62
2022/04/18 07:14:15;;;;;;;7.37;5.05;;;;;;;9.55;100.00;100147.92;1658028;86;21017;-62
2022/04/18 07:16:45;;;;;;;7.65;5.55;;;;;;;9.45;100.00;100150.10;1618764;86;21023;-62
2022/04/18 07:19:14;;;;;;;6.42;5.37;;;;;;;9.48;100.00;100142.70;1652794;86;21090;-62
2022/04/18 07:21:43;;;;;;;6.97;5.40;;;;;;;9.60;100.00;100140.39;1654742;86;22169;-62
2022/04/18 07:24:10;;;;;;;6.10;4.97;;;;;;;9.78;100.00;100137.89;1652998;86;21526;-62
2022/04/18 07:26:39;;;;;;;7.62;5.05;;;;;;;9.85;100.00;100131.53;1652824;86;21087;-63
2022/04/18 07:29:08;;;;;;;5.92;4.90;;;;;;;9.72;100.00;100135.14;1645465;86;21519;-63
2022/04/18 07:31:36;;;;;;;6.22;4.72;;;;;;;9.67;100.00;100134.54;1652728;86;21036;-63
2022/04/18 07:34:03;;;;;;;10.20;5.50;;;;;;;9.92;100.00;100134.22;1654899;86;21626;-62
2022/04/18 07:36:31;;;;;;;9.80;5.50;;;;;;;9.91;100.00;100132.99;1653071;86;21665;-63
2022/04/18 07:39:00;;;;;;;6.05;4.90;;;;;;;10.02;100.00;100134.62;1650702;86;21040;-62
2022/04/18 07:41:32;;;;;;;5.53;4.50;;;;;;;9.77;100.00;100134.92;1655992;86;21067;-62
2022/04/18 07:44:01;;;;;;;6.67;4.58;;;;;;;9.61;100.00;100124.52;1650647;86;22404;-63
2022/04/18 07:46:32;;;;;;;7.55;4.90;;;;;;;9.73;100.00;100117.98;1656023;86;21389;-63
2022/04/18 07:49:00;;;;;;;6.65;4.80;;;;;;;9.67;100.00;100108.84;1655086;86;21436;-63
2022/04/18 07:51:35;;;;;;;5.53;4.70;;;;;;;9.87;100.00;100096.30;1628193;87;21609;-63
2022/04/18 07:54:12;;;;;;;7.97;5.20;;;;;;;10.14;100.00;100102.34;1631859;87;21010;-63
2022/04/18 07:56:39;;;;;;;6.08;4.45;;;;;;;10.09;100.00;100103.00;1608744;87;21039;-63
2022/04/18 07:59:07;;;;;;;5.45;4.45;;;;;;;10.02;100.00;100105.05;1631045;87;21576;-64
2022/04/18 08:01:36;;;;;;;5.90;4.60;;;;;;;9.77;100.00;100094.66;1630162;87;21066;-64
2022/04/18 08:04:04;;;;;;;5.87;4.53;;;;;;;9.79;100.00;100100.55;1632472;87;21054;-63
2022/04/18 08:06:34;;;;;;;5.40;4.40;;;;;;;9.48;100.00;100092.14;1632203;87;21439;-63
2022/04/18 08:09:10;;;;;;;6.55;4.95;;;;;;;9.99;100.00;100097.00;1652719;87;21059;-63
2022/04/18 08:11:38;;;;;;;5.65;4.92;;;;;;;9.98;100.00;100089.38;1656143;87;21078;-64
2022/04/18 08:14:07;;;;;;;7.05;5.10;;;;;;;9.73;100.00;100071.71;1633830;87;21028;-63
2022/04/18 08:16:47;;;;;;;5.78;5.08;;;;;;;9.95;100.00;100075.38;1653090;87;21020;-63
2022/04/18 08:19:30;;;;;;;7.87;5.37;;;;;;;9.97;100.00;100066.67;1655100;87;21027;-63
2022/04/18 08:21:57;;;;;;;7.70;5.72;;;;;;;9.73;100.00;100066.14;1656035;86;21098;-64
2022/04/18 08:24:25;;;;;;;7.45;5.78;;;;;;;10.08;100.00;100063.59;1656226;87;21024;-63
2022/04/18 08:27:09;;;;;;;5.60;5.00;;;;;;;10.55;100.00;100065.55;1567645;91;21032;-63
2022/04/18 08:29:38;;;;;;;8.48;5.05;;;;;;;10.70;100.00;100083.70;1627819;86;21031;-63
2022/04/18 08:32:21;;;;;;;6.08;4.70;;;;;;;10.96;100.00;100063.03;1654670;86;21028;-63
2022/04/18 08:34:48;;;;;;;6.40;4.35;;;;;;;10.78;100.00;100063.07;1656144;87;21075;-63
2022/04/18 08:37:17;;;;;;;6.05;4.65;;;;;;;11.10;100.00;100061.02;1655853;86;21000;-63
2022/04/18 08:39:48;;;;;;;9.10;4.10;;;;;;;11.05;100.00;100089.61;1601315;86;21024;-62
2022/04/18 08:42:21;;;;;;;4.78;3.90;;;;;;;11.13;100.00;100075.01;1656179;86;21016;-63
2022/04/18 08:44:54;;;;;;;6.42;4.90;;;;;;;10.91;100.00;100072.30;1634775;87;21752;-63
2022/04/18 08:52:55;;;;;;;6.05;4.58;;;;;;;11.09;100.00;100079.95;1644742;87;21114;-62
2022/04/18 08:55:35;;;;;;;6.20;5.50;;;;;;;10.69;100.00;100073.04;1634811;87;21555;-62
2022/04/18 08:58:11;;;;;;;7.10;5.20;;;;;;;11.18;100.00;100075.61;1629528;87;21038;-61
2022/04/18 09:00:39;;;;;;;6.60;5.60;;;;;;;11.20;100.00;100072.49;1631145;87;21059;-61
2022/04/18 09:03:07;;;;;;;7.10;5.92;;;;;;;11.00;100.00;100073.08;1629458;87;21105;-62
2022/04/18 09:05:38;;;;;;;8.40;6.20;;;;;;;11.21;100.00;100072.41;1641129;87;21070;-62
2022/04/18 09:08:10;;;;;;;10.58;6.55;;;;;;;11.25;100.00;100064.04;1644770;87;21039;-63
2022/04/18 09:10:40;;;;;;;7.80;6.83;;;;;;;11.43;100.00;100057.06;1645094;87;21031;-63
2022/04/18 09:13:12;;;;;;;8.18;6.17;;;;;;;11.30;100.00;100058.66;1645226;87;21062;-62
2022/04/18 09:15:51;;;;;;;6.85;6.15;;;;;;;11.07;100.00;100058.59;1633368;87;21070;-62
2022/04/18 09:18:22;;;;;;;7.05;6.20;;;;;;;11.12;100.00;100054.04;1645000;87;21105;-63
2022/04/18 09:20:57;;;;;;;7.10;6.40;;;;;;;11.30;100.00;100049.17;1645149;87;21042;-63
2022/04/18 09:23:34;;;;;;;8.48;6.50;;;;;;;11.10;100.00;100046.85;1644531;87;21066;-62
2022/04/18 09:26:09;;;;;;;8.30;6.80;;;;;;;10.98;100.00;100045.75;1639933;87;21473;-63
2022/04/18 09:28:43;;;;;;;8.55;6.20;;;;;;;11.42;100.00;100034.80;1607263;87;21059;-63
2022/04/18 09:31:17;;;;;;;7.58;6.65;;;;;;;11.36;100.00;100036.42;1630217;87;21010;-63
2022/04/18 09:33:48;;;;;;;9.68;7.50;;;;;;;11.36;100.00;100038.53;1630801;87;21050;-61
2022/04/18 09:36:19;;;;;;;14.93;9.05;;;;;;;11.43;100.00;100036.01;1631940;87;20991;-61
2022/04/18 09:38:51;;;;;;;10.55;7.80;;;;;;;11.53;100.00;100031.15;1632850;87;21439;-62
2022/04/18 09:41:31;;;;;;;13.38;9.30;;;;;;;11.23;100.00;100043.97;1654935;87;22341;-62
2022/04/18 09:44:00;;;;;;;9.40;7.72;;;;;;;11.16;100.00;100045.23;1650643;87;21495;-62
2022/04/18 09:46:35;;;;;;;10.58;8.00;;;;;;;11.02;100.00;100049.36;1655914;87;21120;-63
2022/04/18 09:49:13;;;;;;;11.12;8.73;;;;;;;11.31;100.00;100040.52;1626584;87;21008;-62
2022/04/18 09:51:43;;;;;;;10.25;7.87;;;;;;;11.22;100.00;100029.44;1669140;85;21110;-63
2022/04/18 09:54:15;;;;;;;7.78;6.75;;;;;;;11.28;100.00;100025.70;1641337;85;21484;-62
2022/04/18 09:56:50;;;;;;;8.18;7.30;;;;;;;11.11;100.00;100022.73;1666298;85;21024;-61
2022/04/18 09:59:20;;;;;;;8.95;6.83;;;;;;;10.96;100.00;100020.08;1661794;85;21043;-62
2022/04/18 10:01:47;;;;;;;8.18;6.80;;;;;;;11.16;100.00;100028.02;1666580;85;21071;-61
2022/04/18 10:04:16;;;;;;;8.08;6.15;;;;;;;11.20;100.00;100028.69;1663074;85;21024;-62
2022/04/18 10:06:45;;;;;;;7.92;6.78;;;;;;;11.12;100.00;100036.00;1713164;83;21219;-61
2022/04/18 10:09:15;;;;;;;9.90;6.85;;;;;;;11.00;100.00;100032.34;1703801;84;21473;-61
2022/04/18 10:11:44;;;;;;;7.70;6.90;;;;;;;10.97;100.00;100029.48;1713256;84;21501;-61
2022/04/18 10:14:13;;;;;;;8.75;7.50;;;;;;;11.05;100.00;100025.64;1712799;84;21059;-61
2022/04/18 10:16:42;;;;;;;10.65;7.75;;;;;;;10.95;100.00;100031.30;1710347;84;21098;-61
2022/04/18 10:19:48;;;;;;;13.55;9.38;;;;;;;10.88;100.00;100029.95;1709835;84;21072;-61
2022/04/18 10:22:50;;;;;;;9.73;7.05;;;;;;;10.82;100.00;100024.66;1714857;84;21025;-61
2022/04/18 10:25:46;;;;;;;10.90;8.10;;;;;;;10.78;100.00;100031.35;1711757;84;20962;-62
2022/04/18 10:28:18;;;;;;;9.75;7.95;;;;;;;11.27;100.00;100031.76;1708056;84;21025;-62
2022/04/18 10:30:50;;;;;;;9.23;7.28;;;;;;;11.16;100.00;100043.94;1712008;84;21061;-62
2022/04/18 10:33:20;;;;;;;10.68;7.58;;;;;;;10.88;100.00;100042.00;1706591;84;21528;-62
2022/04/18 10:36:07;;;;;;;8.93;7.47;;;;;;;11.08;100.00;100031.47;1709639;84;21021;-63
2022/04/18 10:38:37;;;;;;;9.13;7.28;;;;;;;10.98;100.00;100031.13;1709820;84;20989;-62
2022/04/18 10:41:39;;;;;;;9.53;7.05;;;;;;;11.11;100.00;100027.89;1709937;84;21473;-62
2022/04/18 10:44:12;;;;;;;8.60;7.17;;;;;;;10.96;100.00;100020.08;1704309;84;21017;-62
2022/04/18 10:46:55;;;;;;;9.33;7.70;;;;;;;10.90;100.00;100022.16;1685158;84;21517;-62
2022/04/18 10:49:24;;;;;;;11.73;7.67;;;;;;;10.88;100.00;100017.55;1708136;83;20989;-62
2022/04/18 10:51:54;;;;;;;9.98;7.72;;;;;;;10.85;100.00;100010.82;1713923;82;21061;-62
2022/04/18 10:54:33;;;;;;;10.93;7.85;;;;;;;10.68;100.00;100012.16;1714054;84;21021;-62
2022/04/18 10:57:01;;;;;;;10.00;7.78;;;;;;;10.74;100.00;100011.83;1704791;84;21189;-61
2022/04/18 10:59:35;;;;;;;9.83;7.40;;;;;;;10.66;100.00;100013.52;1708262;83;21039;-62
2022/04/18 11:02:06;;;;;;;11.12;7.87;;;;;;;10.97;100.00;100007.59;1712213;84;21060;-63
2022/04/18 11:04:48;;;;;;;10.53;7.80;;;;;;;10.93;100.00;99997.08;1707391;84;21497;-62
2022/04/18 11:07:15;;;;;;;8.90;7.58;;;;;;;10.84;100.00;99991.12;1712773;84;21073;-62
2022/04/18 11:09:46;;;;;;;10.80;7.95;;;;;;;10.89;100.00;99994.73;1709534;84;20982;-62
2022/04/18 11:12:20;;;;;;;11.50;8.30;;;;;;;10.88;100.00;99972.02;1710530;84;21021;-63
2022/04/18 11:14:55;;;;;;;10.60;8.50;;;;;;;10.84;100.00;99969.23;1708647;83;21048;-63
2022/04/18 11:17:32;;;;;;;11.55;8.70;;;;;;;10.87;100.00;99954.92;1699551;84;28314;-62
2022/04/18 11:20:33;;;;;;;12.20;9.10;;;;;;;10.81;100.00;99958.66;1714091;82;21116;-62
2022/04/18 11:23:30;;;;;;;14.85;10.55;;;;;;;10.85;100.00;99946.88;1714161;83;21088;-62
2022/04/18 11:26:01;;;;;;;16.40;10.55;;;;;;;10.93;100.00;99947.30;1714326;83;21091;-62
2022/04/18 11:28:44;;;;;;;12.60;9.43;;;;;;;11.08;100.00;99943.89;1714426;84;21045;-62
2022/04/18 11:31:29;;;;;;;22.62;13.13;;;;;;;10.97;100.00;99945.78;1710429;84;21009;-62
2022/04/18 11:33:52;;;;;;;18.77;11.30;;;;;;;11.20;100.00;99945.78;1701489;84;21033;-62
2022/04/18 11:36:24;;;;;;;16.15;10.58;;;;;;;11.04;100.00;99937.25;1714325;84;21139;-62
2022/04/18 11:38:54;;;;;;;13.43;9.23;;;;;;;11.21;100.00;99932.01;1714420;84;21059;-62
2022/04/18 11:41:23;;;;;;;25.02;12.65;;;;;;;11.22;100.00;99942.67;1712798;84;21073;-61
2022/04/18 11:43:58;;;;;;;40.90;17.07;;;;;;;10.95;100.00;99937.77;1691895;84;21053;-62
2022/04/18 11:46:30;;;;;;;39.67;17.45;;;;;;;10.98;100.00;99939.70;1714151;83;21064;-62
2022/04/18 11:48:57;;;;;;;28.75;14.58;;;;;;;11.16;100.00;99939.61;1714709;84;21005;-62
2022/04/18 11:51:40;;;;;;;43.73;19.57;;;;;;;11.14;100.00;99940.16;1702721;83;21048;-62
2022/04/18 11:54:08;;;;;;;27.35;13.35;;;;;;;11.07;100.00;99941.39;1700593;84;21608;-62
2022/04/18 11:56:36;;;;;;;30.68;13.93;;;;;;;11.29;100.00;99943.14;1700331;84;21060;-61